createdAt,value
2023-05-14T00:01:57.879Z,100359.56
2023-05-14T00:04:28.492Z,100369.91
2023-05-14T00:06:59.090Z,100369.75
2023-05-14T00:09:30.592Z,100370.59
2023-05-14T00:12:03.459Z,100366.97
2023-05-14T00:14:33.637Z,100369.91
2023-05-14T00:17:03.874Z,100379.47
2023-05-14T00:19:34.056Z,100378.66
2023-05-14T00:22:04.266Z,100374.47
2023-05-14T00:24:34.778Z,100371.94
2023-05-14T00:27:08.063Z,100374.81
2023-05-14T00:29:38.274Z,100374.94
2023-05-14T00:32:09.835Z,100375.91
2023-05-14T00:34:40.068Z,100373.50
2023-05-14T00:37:10.338Z,100364.63
2023-05-14T00:39:40.556Z,100355.13
2023-05-14T00:42:15.742Z,100354.53
2023-05-14T00:44:45.968Z,100353.69
2023-05-14T00:47:16.394Z,100350.53
2023-05-14T00:49:46.919Z,100352.50
2023-05-14T00:52:18.319Z,100351.91
2023-05-14T00:54:50.151Z,100361.16
2023-05-14T00:57:23.189Z,100357.88
2023-05-14T00:59:53.607Z,100360.16
2023-05-14T01:02:24.040Z,100369.16
2023-05-14T01:04:55.036Z,100364.25
2023-05-14T01:07:33.366Z,100361.13
2023-05-14T01:10:09.289Z,100365.91
2023-05-14T01:12:52.790Z,100367.22
2023-05-14T01:15:30.331Z,100366.84
2023-05-14T01:18:03.413Z,100359.31
2023-05-14T01:20:34.757Z,100357.63
2023-05-14T01:23:07.704Z,100354.38
2023-05-14T01:25:38.017Z,100355.94
2023-05-14T01:28:14.515Z,100356.03
2023-05-14T01:30:49.415Z,100356.03
2023-05-14T01:33:21.892Z,100352.06
2023-05-14T01:35:53.876Z,100343.41
2023-05-14T01:38:27.874Z,100349.19
2023-05-14T01:41:01.988Z,100343.31
2023-05-14T01:43:36.148Z,100357.22
2023-05-14T01:46:06.661Z,100340.53
2023-05-14T01:48:39.246Z,100342.56
2023-05-14T01:51:09.598Z,100347.75
2023-05-14T01:53:42.422Z,100335.50
2023-05-14T01:56:12.710Z,100349.53
2023-05-14T01:58:42.878Z,100343.19
2023-05-14T02:01:13.221Z,100336.94
2023-05-14T02:03:43.684Z,100329.88
2023-05-14T02:06:13.996Z,100318.56
2023-05-14T02:08:46.902Z,100313.91
2023-05-14T02:11:17.142Z,100314.63
2023-05-14T02:13:47.407Z,100307.78
2023-05-14T02:16:17.772Z,100301.88
2023-05-14T02:18:48.088Z,100305.38
2023-05-14T02:21:18.382Z,100299.00
2023-05-14T02:23:51.527Z,100297.81
2023-05-14T02:26:21.778Z,100299.63
2023-05-14T02:28:52.057Z,100298.06
2023-05-14T02:31:22.433Z,100300.59
2023-05-14T02:33:53.298Z,100289.16
2023-05-14T02:36:23.607Z,100299.75
2023-05-14T02:39:00.290Z,100294.47
2023-05-14T02:41:30.883Z,100293.63
2023-05-14T02:44:01.095Z,100293.50
2023-05-14T02:46:31.441Z,100290.63
2023-05-14T02:49:02.058Z,100290.38
2023-05-14T02:51:32.270Z,100287.47
2023-05-14T02:54:05.122Z,100281.59
2023-05-14T02:56:35.820Z,100279.69
2023-05-14T02:59:06.462Z,100287.25
2023-05-14T03:01:37.030Z,100274.16
2023-05-14T03:04:08.108Z,100276.06
2023-05-14T03:06:38.337Z,100282.31
2023-05-14T03:09:11.256Z,100271.28
2023-05-14T03:11:44.264Z,100280.88
2023-05-14T03:14:16.738Z,100276.44
2023-05-14T03:16:46.956Z,100283.16
2023-05-14T03:19:17.277Z,100291.47
2023-05-14T03:21:47.697Z,100287.72
2023-05-14T03:24:20.566Z,100285.09
2023-05-14T03:26:50.779Z,100294.66
2023-05-14T03:29:21.044Z,100284.69
2023-05-14T03:31:51.792Z,100283.06
2023-05-14T03:34:22.048Z,100283.03
2023-05-14T03:36:54.659Z,100290.19
2023-05-14T03:39:27.761Z,100286.69
2023-05-14T03:41:59.181Z,100280.38
2023-05-14T03:44:29.339Z,100275.84
2023-05-14T03:46:59.539Z,100279.41
2023-05-14T03:49:29.761Z,100276.94
2023-05-14T03:52:00.394Z,100281.00
2023-05-14T03:54:33.283Z,100272.69
2023-05-14T03:57:03.460Z,100270.94
2023-05-14T03:59:35.899Z,100270.34
2023-05-14T04:02:06.346Z,100266.91
2023-05-14T04:04:36.641Z,100260.63
2023-05-14T04:07:07.323Z,100264.28
2023-05-14T04:09:40.161Z,100262.66
2023-05-14T04:12:11.964Z,100261.59
2023-05-14T04:14:42.406Z,100264.56
2023-05-14T04:17:12.614Z,100258.88
2023-05-14T04:19:42.852Z,100256.22
2023-05-14T04:22:13.138Z,100254.25
2023-05-14T04:24:46.148Z,100253.47
2023-05-14T04:27:22.661Z,100260.00
2023-05-14T04:29:53.239Z,100268.97
2023-05-14T04:32:23.478Z,100273.50
2023-05-14T04:34:53.723Z,100269.75
2023-05-14T04:37:24.004Z,100270.34
2023-05-14T04:39:58.975Z,100271.81
2023-05-14T04:42:29.202Z,100261.22
2023-05-14T04:44:59.407Z,100256.56
2023-05-14T04:47:29.973Z,100253.22
2023-05-14T04:50:00.494Z,100261.19
2023-05-14T04:52:30.832Z,100244.75
2023-05-14T04:55:03.694Z,100246.94
2023-05-14T04:57:35.358Z,100243.00
2023-05-14T05:00:09.984Z,100236.09
2023-05-14T05:02:43.257Z,100240.06
2023-05-14T05:05:13.834Z,100235.47
2023-05-14T05:07:44.047Z,100231.88
2023-05-14T05:10:17.009Z,100217.94
2023-05-14T05:12:47.193Z,100219.22
2023-05-14T05:15:17.363Z,100208.78
2023-05-14T05:17:47.609Z,100209.47
2023-05-14T05:20:18.148Z,100213.25
2023-05-14T05:22:48.365Z,100214.28
2023-05-14T05:25:21.527Z,100216.31
2023-05-14T05:27:51.729Z,100212.50
2023-05-14T05:30:23.853Z,100205.09
2023-05-14T05:32:54.471Z,100206.72
2023-05-14T05:35:25.802Z,100215.91
2023-05-14T05:37:56.082Z,100212.09
2023-05-14T05:40:28.961Z,100212.69
2023-05-14T05:42:59.172Z,100206.47
2023-05-14T05:45:29.444Z,100209.31
2023-05-14T05:48:02.375Z,100201.78
2023-05-14T05:50:34.664Z,100197.34
2023-05-14T05:53:04.961Z,100210.88
2023-05-14T05:55:37.906Z,100207.69
2023-05-14T05:58:08.149Z,100215.19
2023-05-14T06:00:38.334Z,100214.44
2023-05-14T06:03:11.224Z,100220.34
2023-05-14T06:05:41.641Z,100218.13
2023-05-14T06:08:14.553Z,100210.91
2023-05-14T06:10:47.870Z,100217.53
2023-05-14T06:13:18.087Z,100210.84
2023-05-14T06:15:48.453Z,100214.75
2023-05-14T06:18:18.718Z,100211.72
2023-05-14T06:20:49.014Z,100211.34
2023-05-14T06:23:19.279Z,100215.91
2023-05-14T06:25:53.149Z,100180.38
2023-05-14T06:28:23.336Z,100219.00
2023-05-14T06:30:54.232Z,100216.81
2023-05-14T06:33:31.205Z,100208.50
2023-05-14T06:36:01.826Z,100211.09
2023-05-14T06:38:32.042Z,100210.50
2023-05-14T06:41:04.918Z,100215.25
2023-05-14T06:43:35.165Z,100213.34
2023-05-14T06:46:05.458Z,100209.53
2023-05-14T06:48:37.700Z,100212.88
2023-05-14T06:51:08.010Z,100208.03
2023-05-14T06:53:40.833Z,100208.00
2023-05-14T06:56:14.914Z,100202.69
2023-05-14T06:58:47.253Z,100209.88
2023-05-14T07:01:17.687Z,100208.22
2023-05-14T07:03:47.902Z,100202.00
2023-05-14T07:06:18.455Z,100191.97
2023-05-14T07:08:48.927Z,100192.31
2023-05-14T07:11:22.487Z,100186.50
2023-05-14T07:13:52.728Z,100192.06
2023-05-14T07:16:23.113Z,100200.53
2023-05-14T07:18:53.510Z,100191.50
2023-05-14T07:21:24.030Z,100180.84
2023-05-14T07:23:54.397Z,100178.19
2023-05-14T07:26:27.407Z,100172.94
2023-05-14T07:28:57.627Z,100168.50
2023-05-14T07:31:27.949Z,100169.44
2023-05-14T07:33:58.231Z,100162.56
2023-05-14T07:36:28.763Z,100166.31
2023-05-14T07:38:59.084Z,100167.00
2023-05-14T07:41:31.955Z,100164.97
2023-05-14T07:44:02.212Z,100149.63
2023-05-14T07:46:32.444Z,100153.47
2023-05-14T07:49:02.698Z,100146.22
2023-05-14T07:51:33.773Z,100149.63
2023-05-14T07:54:04.065Z,100137.88
2023-05-14T07:56:36.998Z,100150.50
2023-05-14T07:59:10.066Z,100134.75
2023-05-14T08:01:40.322Z,100138.88
2023-05-14T08:04:11.904Z,100146.09
2023-05-14T08:06:42.258Z,100137.41
2023-05-14T08:09:12.506Z,100137.25
2023-05-14T08:11:45.318Z,100135.25
2023-05-14T08:14:16.332Z,100124.66
2023-05-14T08:16:46.683Z,100122.00
2023-05-14T08:19:17.099Z,100114.81
2023-05-14T08:21:47.470Z,100113.44
2023-05-14T08:24:17.656Z,100114.63
2023-05-14T08:26:50.891Z,100116.41
2023-05-14T08:29:21.208Z,100111.06
2023-05-14T08:31:52.809Z,100100.34
2023-05-14T08:34:23.139Z,100102.97
2023-05-14T08:36:56.533Z,100096.19
2023-05-14T08:39:26.756Z,100100.22
2023-05-14T08:42:01.624Z,100089.47
2023-05-14T08:44:37.513Z,100080.06
2023-05-14T08:47:08.657Z,100088.31
2023-05-14T08:49:43.818Z,100092.34
2023-05-14T08:52:14.384Z,100082.94
2023-05-14T08:54:44.700Z,100082.94
2023-05-14T08:57:18.137Z,100080.56
2023-05-14T08:59:48.724Z,100077.97
2023-05-14T09:02:19.938Z,100073.50
2023-05-14T09:04:50.857Z,100071.00
2023-05-14T09:07:21.743Z,100070.69
2023-05-14T09:09:51.926Z,100067.31
2023-05-14T09:12:25.358Z,100065.31
2023-05-14T09:14:55.700Z,100069.56
2023-05-14T09:17:29.222Z,100057.22
2023-05-14T09:19:59.630Z,100055.38
2023-05-14T09:22:33.225Z,100050.50
2023-05-14T09:25:09.692Z,100043.13
2023-05-14T09:27:42.734Z,100041.94
2023-05-14T09:30:14.659Z,100051.19
2023-05-14T09:32:47.527Z,100049.03
2023-05-14T09:35:22.866Z,100045.84
2023-05-14T09:37:54.831Z,100050.75
2023-05-14T09:40:26.751Z,100044.53
2023-05-14T09:43:02.114Z,100045.81
2023-05-14T09:45:35.152Z,100026.75
2023-05-14T09:48:06.207Z,100037.09
2023-05-14T09:50:44.564Z,100030.75
2023-05-14T09:53:14.956Z,100015.25
2023-05-14T09:55:45.416Z,100035.63
2023-05-14T09:58:18.323Z,100029.03
2023-05-14T10:00:52.203Z,100015.31
2023-05-14T10:03:24.949Z,100015.72
2023-05-14T10:05:55.872Z,100025.59
2023-05-14T10:08:30.041Z,100021.03
2023-05-14T10:11:02.396Z,100005.44
2023-05-14T10:13:45.559Z,99990.91
2023-05-14T10:16:22.857Z,99976.84
2023-05-14T10:18:57.336Z,99977.56
2023-05-14T10:21:29.799Z,99987.66
2023-05-14T10:24:00.670Z,99985.59
2023-05-14T10:26:31.666Z,99978.50
2023-05-14T10:29:04.544Z,99981.59
2023-05-14T10:31:51.865Z,99966.41
2023-05-14T10:34:37.522Z,99957.31
2023-05-14T10:37:09.336Z,99962.56
2023-05-14T10:39:47.602Z,99959.81
2023-05-14T10:42:22.985Z,99936.06
2023-05-14T10:44:58.999Z,99944.13
2023-05-14T10:47:29.813Z,99935.16
2023-05-14T10:50:02.182Z,99935.00
2023-05-14T10:52:33.404Z,99920.50
2023-05-14T10:55:10.402Z,99920.94
2023-05-14T10:57:44.985Z,99901.81
2023-05-14T11:00:19.065Z,99926.88
2023-05-14T11:02:52.450Z,99934.25
2023-05-14T11:05:22.801Z,99935.50
2023-05-14T11:07:55.450Z,99929.06
2023-05-14T11:10:26.158Z,99925.56
2023-05-14T11:12:56.624Z,99913.72
2023-05-14T11:15:30.177Z,99910.06
2023-05-14T11:18:00.497Z,99912.94
2023-05-14T11:20:32.954Z,99918.53
2023-05-14T11:23:03.748Z,99921.41
2023-05-14T11:25:34.473Z,99920.28
2023-05-14T11:28:04.984Z,99920.78
2023-05-14T11:30:39.896Z,99913.75
2023-05-14T11:33:10.336Z,99916.13
2023-05-14T11:35:42.314Z,99907.94
2023-05-14T11:38:17.624Z,99909.41
2023-05-14T11:40:55.747Z,99900.06
2023-05-14T11:43:29.484Z,99908.84
2023-05-14T11:46:05.254Z,99908.59
2023-05-14T11:48:36.266Z,99921.22
2023-05-14T11:51:12.953Z,99916.91
2023-05-14T11:53:43.292Z,99905.34
2023-05-14T11:56:14.609Z,99907.41
2023-05-14T11:58:51.210Z,99911.53
2023-05-14T12:01:24.260Z,99907.47
2023-05-14T12:03:55.148Z,99899.44
2023-05-14T12:06:33.295Z,99892.59
2023-05-14T12:09:03.615Z,99890.00
2023-05-14T12:11:34.858Z,99880.88
2023-05-14T12:14:08.145Z,99874.28
2023-05-14T12:16:47.011Z,99874.16
2023-05-14T12:19:19.121Z,99872.59
2023-05-14T12:21:51.361Z,99877.84
2023-05-14T12:24:22.700Z,99871.88
2023-05-14T12:26:55.682Z,99862.09
2023-05-14T12:29:25.946Z,99863.22
2023-05-14T12:32:01.161Z,99858.47
2023-05-14T12:34:31.312Z,99856.47
2023-05-14T12:37:01.542Z,99851.69
2023-05-14T12:39:31.728Z,99849.13
2023-05-14T12:42:02.044Z,99838.81
2023-05-14T12:44:32.416Z,99839.38
2023-05-14T12:47:05.399Z,99842.38
2023-05-14T12:49:35.779Z,99836.09
2023-05-14T12:52:22.737Z,99845.56
2023-05-14T12:54:56.394Z,99832.06
2023-05-14T12:57:27.971Z,99827.41
2023-05-14T12:59:58.712Z,99813.59
2023-05-14T13:02:31.945Z,99815.63
2023-05-14T13:05:02.968Z,99811.34
2023-05-14T13:07:33.616Z,99808.84
2023-05-14T13:10:05.815Z,99810.06
2023-05-14T13:12:36.600Z,99816.06
2023-05-14T13:15:07.569Z,99805.75
2023-05-14T13:17:41.591Z,99806.41
2023-05-14T13:20:16.245Z,99796.38
2023-05-14T13:22:46.486Z,99802.56
2023-05-14T13:25:16.744Z,99803.09
2023-05-14T13:27:47.001Z,99807.50
2023-05-14T13:30:17.690Z,99801.16
2023-05-14T13:32:51.377Z,99805.41
2023-05-14T13:35:21.816Z,99793.63
2023-05-14T13:37:52.242Z,99803.34
2023-05-14T13:40:22.796Z,99809.69
2023-05-14T13:42:53.113Z,99806.69
2023-05-14T13:45:23.485Z,99802.31
2023-05-14T13:47:56.852Z,99792.81
2023-05-14T13:50:27.211Z,99795.75
2023-05-14T13:52:57.532Z,99793.03
2023-05-14T13:55:29.468Z,99792.16
2023-05-14T13:58:04.534Z,99796.31
2023-05-14T14:00:34.879Z,99785.59
2023-05-14T14:03:08.672Z,99790.59
2023-05-14T14:05:39.459Z,99791.53
2023-05-14T14:08:22.793Z,99786.59
2023-05-14T14:10:55.593Z,99793.53
2023-05-14T14:13:26.353Z,99785.44
2023-05-14T14:15:57.080Z,99784.25
2023-05-14T14:18:30.127Z,99795.28
2023-05-14T14:21:00.621Z,99786.50
2023-05-14T14:23:30.902Z,99796.97
2023-05-14T14:26:01.154Z,99801.38
2023-05-14T14:28:31.590Z,99799.72
2023-05-14T14:31:01.901Z,99798.06
2023-05-14T14:33:34.791Z,99798.06
2023-05-14T14:36:05.132Z,99800.56
2023-05-14T14:38:35.529Z,99813.59
2023-05-14T14:41:07.917Z,99814.22
2023-05-14T14:43:38.543Z,99805.44
2023-05-14T14:46:09.599Z,99801.97
2023-05-14T14:48:42.728Z,99792.31
2023-05-14T14:51:15.275Z,99794.53
2023-05-14T14:53:45.935Z,99792.88
2023-05-14T14:56:16.211Z,99792.88
2023-05-14T14:58:46.434Z,99794.38
2023-05-14T15:01:17.130Z,99787.88
2023-05-14T15:03:50.191Z,99790.69
2023-05-14T15:06:20.625Z,99801.03
2023-05-14T15:08:50.883Z,99800.72
2023-05-14T15:11:21.260Z,99800.19
2023-05-14T15:13:51.828Z,99800.47
2023-05-14T15:16:22.138Z,99797.63
2023-05-14T15:18:55.091Z,99798.16
2023-05-14T15:21:27.605Z,99796.47
2023-05-14T15:23:57.856Z,99795.81
2023-05-14T15:26:28.362Z,99794.78
2023-05-14T15:28:59.231Z,99779.00
2023-05-14T15:31:31.750Z,99774.50
2023-05-14T15:34:04.667Z,99764.16
2023-05-14T15:36:34.995Z,99755.09
2023-05-14T15:39:05.288Z,99754.09
2023-05-14T15:41:42.953Z,99740.13
2023-05-14T15:44:15.926Z,99733.16
2023-05-14T15:46:46.258Z,99737.78
2023-05-14T15:49:19.400Z,99734.78
2023-05-14T15:51:49.738Z,99736.25
2023-05-14T15:54:19.994Z,99733.25
2023-05-14T15:56:50.298Z,99735.13
2023-05-14T15:59:20.551Z,99733.97
2023-05-14T16:01:50.835Z,99740.25
2023-05-14T16:04:23.678Z,99738.31
2023-05-14T16:06:54.513Z,99739.06
2023-05-14T16:09:27.705Z,99738.19
2023-05-14T16:11:57.969Z,99726.88
2023-05-14T16:14:28.181Z,99718.59
2023-05-14T16:16:58.485Z,99697.28
2023-05-14T16:19:31.522Z,99710.16
2023-05-14T16:22:04.219Z,99704.41
2023-05-14T16:24:34.425Z,99707.28
2023-05-14T16:27:04.726Z,99707.44
2023-05-14T16:29:34.995Z,99709.69
2023-05-14T16:32:05.442Z,99701.38
2023-05-14T16:34:38.265Z,99711.22
2023-05-14T16:37:09.653Z,99712.06
2023-05-14T16:39:40.980Z,99709.91
2023-05-14T16:42:11.355Z,99711.75
2023-05-14T16:44:41.656Z,99704.25
2023-05-14T16:47:13.321Z,99697.47
2023-05-14T16:49:47.165Z,99695.66
2023-05-14T16:52:17.446Z,99697.47
2023-05-14T16:54:47.849Z,99694.44
2023-05-14T16:57:18.235Z,99691.19
2023-05-14T16:59:48.492Z,99690.75
2023-05-14T17:02:18.974Z,99692.03
2023-05-14T17:04:51.916Z,99693.75
2023-05-14T17:07:24.652Z,99683.97
2023-05-14T17:09:55.015Z,99691.09
2023-05-14T17:12:25.202Z,99694.31
2023-05-14T17:14:55.525Z,99687.84
2023-05-14T17:17:25.785Z,99697.59
2023-05-14T17:19:58.746Z,99687.25
2023-05-14T17:22:29.135Z,99698.84
2023-05-14T17:24:59.455Z,99694.25
2023-05-14T17:27:32.021Z,99674.03
2023-05-14T17:30:02.362Z,99671.47
2023-05-14T17:32:33.323Z,99661.22
2023-05-14T17:35:09.920Z,99661.91
2023-05-14T17:37:40.231Z,99667.06
2023-05-14T17:40:15.118Z,99659.34
2023-05-14T17:42:48.490Z,99661.38
2023-05-14T17:45:20.911Z,99652.72
2023-05-14T17:47:52.770Z,99652.34
2023-05-14T17:50:25.763Z,99662.66
2023-05-14T17:52:58.804Z,99647.28
2023-05-14T17:55:29.877Z,99652.34
2023-05-14T17:58:00.195Z,99650.50
2023-05-14T18:00:30.586Z,99643.69
2023-05-14T18:03:00.931Z,99641.88
2023-05-14T18:05:34.243Z,99635.88
2023-05-14T18:08:05.161Z,99637.41
2023-05-14T18:10:36.374Z,99632.94
2023-05-14T18:13:06.929Z,99622.25
2023-05-14T18:15:39.036Z,99624.94
2023-05-14T18:18:09.664Z,99607.78
2023-05-14T18:20:42.568Z,99600.91
2023-05-14T18:23:13.095Z,99606.44
2023-05-14T18:25:43.650Z,99604.00
2023-05-14T18:28:16.817Z,99599.66
2023-05-14T18:30:47.795Z,99604.13
2023-05-14T18:33:18.553Z,99599.75
2023-05-14T18:35:51.915Z,99602.53
2023-05-14T18:38:25.592Z,99604.75
2023-05-14T18:40:56.280Z,99604.28
2023-05-14T18:43:26.920Z,99600.59
2023-05-14T18:45:57.851Z,99601.34
2023-05-14T18:48:28.615Z,99600.81
2023-05-14T18:51:01.871Z,99602.63
2023-05-14T18:53:32.704Z,99590.81
2023-05-14T18:56:05.005Z,99588.31
2023-05-14T18:58:36.185Z,99588.53
2023-05-14T19:01:06.930Z,99579.72
2023-05-14T19:03:37.741Z,99591.13
2023-05-14T19:06:11.773Z,99581.50
2023-05-14T19:08:42.684Z,99590.34
2023-05-14T19:11:13.687Z,99593.22
2023-05-14T19:13:46.813Z,99592.47
2023-05-14T19:16:17.645Z,99591.88
2023-05-14T19:18:48.457Z,99591.66
2023-05-14T19:21:21.655Z,99584.34
2023-05-14T19:23:52.347Z,99586.59
2023-05-14T19:26:22.944Z,99574.47
2023-05-14T19:28:58.595Z,99580.41
2023-05-14T19:31:29.481Z,99580.81
2023-05-14T19:34:00.116Z,99558.50
2023-05-14T19:36:34.538Z,99557.28
2023-05-14T19:39:05.432Z,99552.00
2023-05-14T19:41:36.024Z,99556.88
2023-05-14T19:44:06.689Z,99559.91
2023-05-14T19:46:37.528Z,99565.59
2023-05-14T19:49:08.134Z,99559.19
2023-05-14T19:51:41.418Z,99555.22
2023-05-14T19:54:11.975Z,99554.53
2023-05-14T19:56:42.857Z,99558.81
2023-05-14T19:59:13.479Z,99545.47
2023-05-14T20:01:44.384Z,99540.44
2023-05-14T20:04:16.368Z,99539.28
2023-05-14T20:06:49.527Z,99527.91
2023-05-14T20:09:26.223Z,99525.38
2023-05-14T20:11:56.477Z,99514.34
2023-05-14T20:14:26.939Z,99521.56
2023-05-14T20:16:58.193Z,99518.75
2023-05-14T20:19:29.692Z,99518.59
2023-05-14T20:22:05.467Z,99515.97
2023-05-14T20:24:35.844Z,99514.09
2023-05-14T20:27:06.128Z,99521.06
2023-05-14T20:29:36.539Z,99510.81
2023-05-14T20:32:07.316Z,99504.34
2023-05-14T20:34:37.563Z,99491.47
2023-05-14T20:37:10.513Z,99485.03
2023-05-14T20:39:40.792Z,99480.41
2023-05-14T20:42:11.139Z,99485.09
2023-05-14T20:44:41.372Z,99484.06
2023-05-14T20:47:12.889Z,99467.97
2023-05-14T20:49:43.123Z,99464.97
2023-05-14T20:52:16.247Z,99465.66
2023-05-14T20:54:46.713Z,99453.19
2023-05-14T20:57:19.401Z,99448.81
2023-05-14T20:59:49.642Z,99449.34
2023-05-14T21:02:19.936Z,99435.88
2023-05-14T21:04:51.073Z,99433.88
2023-05-14T21:07:24.294Z,99432.09
2023-05-14T21:09:55.075Z,99424.78
2023-05-14T21:12:25.874Z,99422.94
2023-05-14T21:14:56.145Z,99426.44
2023-05-14T21:17:26.423Z,99426.59
2023-05-14T21:19:56.716Z,99422.47
2023-05-14T21:22:29.934Z,99424.75
2023-05-14T21:25:00.220Z,99409.00
2023-05-14T21:27:30.493Z,99411.97
2023-05-14T21:30:03.086Z,99396.72
2023-05-14T21:32:35.406Z,99390.91
2023-05-14T21:35:05.816Z,99400.69
2023-05-14T21:37:39.912Z,99405.34
2023-05-14T21:40:12.642Z,99387.09
2023-05-14T21:42:43.418Z,99393.91
2023-05-14T21:45:14.262Z,99392.06
2023-05-14T21:47:44.652Z,99395.53
2023-05-14T21:50:17.173Z,99389.03
2023-05-14T21:52:49.965Z,99392.06
2023-05-14T21:55:20.440Z,99389.94
2023-05-14T21:57:51.241Z,99392.22
2023-05-14T22:00:23.610Z,99375.75
2023-05-14T22:02:54.852Z,99381.94
2023-05-14T22:05:25.510Z,99372.81
2023-05-14T22:07:58.637Z,99370.47
2023-05-14T22:10:29.057Z,99369.00
2023-05-14T22:12:59.412Z,99374.13
2023-05-14T22:15:29.772Z,99361.84
2023-05-14T22:18:00.000Z,99361.66
2023-05-14T22:20:30.386Z,99366.66
2023-05-14T22:23:03.194Z,99370.16
2023-05-14T22:25:33.469Z,99364.34
2023-05-14T22:28:03.693Z,99366.34
2023-05-14T22:30:34.024Z,99364.69
2023-05-14T22:33:04.380Z,99360.03
2023-05-14T22:35:34.636Z,99382.75
2023-05-14T22:38:07.748Z,99396.06
2023-05-14T22:40:38.210Z,99417.66
2023-05-14T22:43:08.491Z,99424.94
2023-05-14T22:45:38.831Z,99414.00
2023-05-14T22:48:09.657Z,99417.16
2023-05-14T22:50:40.119Z,99417.66
2023-05-14T22:53:12.971Z,99406.03
2023-05-14T22:55:43.282Z,99388.75
2023-05-14T22:58:13.634Z,99386.94
2023-05-14T23:00:43.963Z,99384.09
2023-05-14T23:03:14.186Z,99384.09
2023-05-14T23:05:44.610Z,99378.28
2023-05-14T23:08:17.515Z,99382.28
2023-05-14T23:10:47.762Z,99395.88
2023-05-14T23:13:19.373Z,99393.56
2023-05-14T23:15:49.629Z,99396.22
2023-05-14T23:18:19.939Z,99406.34
2023-05-14T23:20:50.263Z,99401.19
2023-05-14T23:23:23.164Z,99399.38
2023-05-14T23:25:53.846Z,99401.19
2023-05-14T23:28:24.267Z,99393.72
2023-05-14T23:30:54.456Z,99379.59
2023-05-14T23:33:24.782Z,99389.09
2023-05-14T23:35:57.687Z,99384.59
2023-05-14T23:38:30.686Z,99377.28
2023-05-14T23:41:00.911Z,99374.97
2023-05-14T23:43:31.808Z,99374.63
2023-05-14T23:46:04.539Z,99376.97
2023-05-14T23:48:34.891Z,99373.13
2023-05-14T23:51:05.173Z,99364.66
2023-05-14T23:53:37.966Z,99353.72
2023-05-14T23:56:09.195Z,99351.88
2023-05-14T23:58:39.433Z,99345.41
